Terminal Aerodrome Forecast
Issued by NWS

Home | Current Version | Previous Version | Text Only | Print | Product List | Glossary On
Versions: 1 2 3 4 5 6 7 8 9 10 11 12 13 14 15 16 17 18 19 20 21 22 23 24
083
FTUS43 KDLH 211137
TAFHIB
TAF
KHIB 211137Z 2112/2212 17009KT P6SM BKN250
     FM211600 17010KT P6SM OVC015
     FM212100 17010KT 5SM -SHRA OVC010
     FM220000 18008KT 5SM -SHRA VCTS OVC008CB
     FM220500 22006KT P6SM OVC015
     FM220700 26005KT P6SM BKN035=

USA.gov is the U.S. government's official web portal to all federal, state and local government web resources and services.